createdAt,value
2019-06-08T00:00:03.613Z,59
2019-06-08T00:01:02.813Z,59
2019-06-08T00:02:03.031Z,59
2019-06-08T00:03:03.390Z,59
2019-06-08T00:04:03.104Z,59
2019-06-08T00:05:02.848Z,60
2019-06-08T00:06:03.253Z,59
2019-06-08T00:07:02.805Z,59
2019-06-08T00:08:02.943Z,59
2019-06-08T00:09:02.778Z,59
2019-06-08T00:10:03.461Z,59
2019-06-08T00:11:03.507Z,59
2019-06-08T00:12:02.853Z,59
2019-06-08T00:13:03.317Z,59
2019-06-08T00:14:03.077Z,59
2019-06-08T00:15:03.244Z,59
2019-06-08T00:16:03.014Z,59
2019-06-08T00:17:03.558Z,60
2019-06-08T00:18:02.658Z,60
2019-06-08T00:19:03.428Z,60
2019-06-08T00:20:03.245Z,60
2019-06-08T00:21:03.162Z,60
2019-06-08T00:22:03.372Z,60
2019-06-08T00:23:02.735Z,60
2019-06-08T00:24:02.921Z,60
2019-06-08T00:25:03.244Z,60
2019-06-08T00:26:02.776Z,60
2019-06-08T00:27:03.232Z,60
2019-06-08T00:28:03.186Z,60
2019-06-08T00:29:02.820Z,60
2019-06-08T00:30:03.676Z,60
2019-06-08T00:31:03.364Z,60
2019-06-08T00:32:02.701Z,60
2019-06-08T00:33:03.493Z,60
2019-06-08T00:34:03.411Z,61
2019-06-08T00:35:02.734Z,61
2019-06-08T00:36:03.617Z,60
2019-06-08T00:37:02.838Z,60
2019-06-08T00:38:02.451Z,60
2019-06-08T00:39:03.219Z,61
2019-06-08T00:40:03.186Z,60
2019-06-08T00:41:03.261Z,60
2019-06-08T00:42:03.363Z,61
2019-06-08T00:43:02.856Z,61
2019-06-08T00:44:02.659Z,61
2019-06-08T00:45:03.119Z,61
2019-06-08T00:46:02.489Z,61
2019-06-08T00:47:03.559Z,61
2019-06-08T00:48:03.232Z,61
2019-06-08T00:49:03.037Z,61
2019-06-08T00:50:03.322Z,61
2019-06-08T00:51:03.213Z,61
2019-06-08T00:52:02.769Z,61
2019-06-08T00:53:03.344Z,61
2019-06-08T00:54:03.111Z,61
2019-06-08T00:55:02.745Z,62
2019-06-08T00:56:03.267Z,62
2019-06-08T00:57:02.916Z,62
2019-06-08T00:58:02.536Z,62
2019-06-08T00:59:02.989Z,62
2019-06-08T01:00:11.930Z,62
2019-06-08T01:01:03.359Z,62
2019-06-08T01:02:03.149Z,62
2019-06-08T01:03:02.725Z,62
2019-06-08T01:04:03.553Z,62
2019-06-08T01:05:03.106Z,62
2019-06-08T01:06:02.758Z,62
2019-06-08T01:07:03.236Z,62
2019-06-08T01:08:03.135Z,62
2019-06-08T01:09:03.466Z,62
2019-06-08T01:10:03.453Z,62
2019-06-08T01:11:02.969Z,62
2019-06-08T01:12:03.555Z,62
2019-06-08T01:13:02.981Z,62
2019-06-08T01:14:02.693Z,62
2019-06-08T01:15:03.861Z,62
2019-06-08T01:16:03.059Z,62
2019-06-08T01:17:03.025Z,63
2019-06-08T01:18:04.612Z,63
2019-06-08T01:19:02.902Z,62
2019-06-08T01:20:02.744Z,63
2019-06-08T01:21:03.188Z,62
2019-06-08T01:22:03.062Z,63
2019-06-08T01:23:02.816Z,63
2019-06-08T01:24:03.420Z,63
2019-06-08T01:25:03.095Z,63
2019-06-08T01:26:02.598Z,63
2019-06-08T01:27:03.462Z,63
2019-06-08T01:28:02.495Z,63
2019-06-08T01:29:02.772Z,63
2019-06-08T01:30:03.423Z,62
2019-06-08T01:31:02.900Z,62
2019-06-08T01:32:03.388Z,62
2019-06-08T01:33:03.529Z,62
2019-06-08T01:34:02.844Z,62
2019-06-08T01:35:03.585Z,62
2019-06-08T01:36:03.095Z,62
2019-06-08T01:37:03.582Z,62
2019-06-08T01:38:03.239Z,62
2019-06-08T01:39:02.779Z,62
2019-06-08T01:40:03.504Z,62
2019-06-08T01:41:03.280Z,63
2019-06-08T01:42:02.678Z,63
2019-06-08T01:43:03.587Z,62
2019-06-08T01:44:03.049Z,62
2019-06-08T01:45:04.071Z,62
2019-06-08T01:46:03.430Z,62
2019-06-08T01:47:02.968Z,62
2019-06-08T01:48:22.357Z,62
2019-06-08T01:49:03.425Z,62
2019-06-08T01:50:03.019Z,62
2019-06-08T01:51:03.811Z,62
2019-06-08T01:52:03.104Z,62
2019-06-08T01:53:02.448Z,62
2019-06-08T01:54:03.309Z,62
2019-06-08T01:55:03.008Z,62
2019-06-08T01:56:02.963Z,62
2019-06-08T01:57:03.245Z,62
2019-06-08T01:58:02.957Z,62
2019-06-08T01:59:03.575Z,62
2019-06-08T02:00:41.567Z,63
2019-06-08T02:02:02.584Z,63
2019-06-08T02:03:03.148Z,63
2019-06-08T02:04:02.784Z,62
2019-06-08T02:05:03.091Z,62
2019-06-08T02:06:03.367Z,63
2019-06-08T02:07:03.505Z,63
2019-06-08T02:08:03.296Z,63
2019-06-08T02:09:02.668Z,63
2019-06-08T02:10:02.514Z,63
2019-06-08T02:11:02.795Z,63
2019-06-08T02:12:02.851Z,63
2019-06-08T02:13:03.293Z,63
2019-06-08T02:14:03.032Z,63
2019-06-08T02:15:02.774Z,63
2019-06-08T02:16:03.236Z,63
2019-06-08T02:17:02.974Z,63
2019-06-08T02:18:03.494Z,63
2019-06-08T02:19:03.793Z,63
2019-06-08T02:20:03.012Z,63
2019-06-08T02:21:03.489Z,63
2019-06-08T02:22:03.145Z,63
2019-06-08T02:23:02.520Z,63
2019-06-08T02:24:03.681Z,63
2019-06-08T02:25:03.456Z,63
2019-06-08T02:26:02.722Z,63
2019-06-08T02:27:03.291Z,63
2019-06-08T02:28:03.362Z,63
2019-06-08T02:29:03.638Z,63
2019-06-08T02:30:03.155Z,63
2019-06-08T02:31:02.783Z,63
2019-06-08T02:32:02.543Z,63
2019-06-08T02:33:03.159Z,63
2019-06-08T02:34:02.763Z,63
2019-06-08T02:35:03.119Z,63
2019-06-08T02:36:02.724Z,63
2019-06-08T02:37:02.892Z,63
2019-06-08T02:38:03.276Z,63
2019-06-08T02:39:02.992Z,63
2019-06-08T02:40:02.700Z,63
2019-06-08T02:41:03.378Z,63
2019-06-08T02:42:02.971Z,63
2019-06-08T02:43:03.347Z,63
2019-06-08T02:44:02.950Z,63
2019-06-08T02:45:02.762Z,63
2019-06-08T02:46:02.880Z,63
2019-06-08T02:47:02.875Z,63
2019-06-08T02:48:03.204Z,63
2019-06-08T02:49:05.404Z,63
2019-06-08T02:50:02.710Z,63
2019-06-08T02:51:03.228Z,63
2019-06-08T02:52:02.687Z,63
2019-06-08T02:53:03.597Z,63
2019-06-08T02:54:03.154Z,63
2019-06-08T02:55:02.963Z,63
2019-06-08T02:56:03.424Z,63
2019-06-08T02:57:02.969Z,63
2019-06-08T02:58:02.793Z,63
2019-06-08T02:59:03.052Z,63
2019-06-08T03:00:02.939Z,63
2019-06-08T03:01:02.630Z,63
2019-06-08T03:02:03.538Z,63
2019-06-08T03:03:02.946Z,63
2019-06-08T03:04:03.431Z,63
2019-06-08T03:05:02.985Z,63
2019-06-08T03:06:02.646Z,63
2019-06-08T03:07:03.057Z,63
2019-06-08T03:08:03.145Z,63
2019-06-08T03:09:03.500Z,63
2019-06-08T03:10:03.409Z,64
2019-06-08T03:11:02.933Z,64
2019-06-08T03:12:03.607Z,64
2019-06-08T03:13:03.218Z,63
2019-06-08T03:14:03.083Z,64
2019-06-08T03:15:03.667Z,64
2019-06-08T03:16:03.302Z,64
2019-06-08T03:17:02.903Z,64
2019-06-08T03:18:03.293Z,64
2019-06-08T03:19:23.317Z,64
2019-06-08T03:20:02.758Z,64
2019-06-08T03:21:02.603Z,64
2019-06-08T03:22:03.274Z,64
2019-06-08T03:23:02.934Z,64
2019-06-08T03:24:03.380Z,64
2019-06-08T03:25:03.046Z,64
2019-06-08T03:26:02.900Z,64
2019-06-08T03:27:03.490Z,64
2019-06-08T03:28:02.929Z,64
2019-06-08T03:29:03.487Z,65
2019-06-08T03:30:20.211Z,65
2019-06-08T03:31:03.479Z,65
2019-06-08T03:32:02.962Z,65
2019-06-08T03:33:02.824Z,65
2019-06-08T03:34:03.647Z,65
2019-06-08T03:35:03.370Z,65
2019-06-08T03:36:02.694Z,65
2019-06-08T03:37:03.537Z,65
2019-06-08T03:38:02.767Z,65
2019-06-08T03:39:03.020Z,65
2019-06-08T03:40:03.317Z,65
2019-06-08T03:41:02.956Z,65
2019-06-08T03:42:03.072Z,65
2019-06-08T03:43:03.549Z,65
2019-06-08T03:44:02.825Z,65
2019-06-08T03:45:02.707Z,65
2019-06-08T03:46:03.061Z,65
2019-06-08T03:47:02.778Z,65
2019-06-08T03:48:02.615Z,65
2019-06-08T03:49:02.788Z,65
2019-06-08T03:50:02.647Z,65
2019-06-08T03:51:03.276Z,65
2019-06-08T03:52:03.096Z,65
2019-06-08T03:53:03.256Z,65
2019-06-08T03:54:03.613Z,65
2019-06-08T03:55:03.075Z,66
2019-06-08T03:56:02.595Z,66
2019-06-08T03:57:03.534Z,66
2019-06-08T03:58:03.112Z,66
2019-06-08T03:59:02.746Z,66
2019-06-08T04:00:14.088Z,66
2019-06-08T04:01:02.976Z,66
2019-06-08T04:02:02.621Z,66
2019-06-08T04:03:02.891Z,66
2019-06-08T04:04:02.515Z,66
2019-06-08T04:05:03.453Z,66
2019-06-08T04:06:02.628Z,66
2019-06-08T04:07:02.561Z,66
2019-06-08T04:08:02.591Z,66
2019-06-08T04:09:03.476Z,66
2019-06-08T04:10:03.518Z,66
2019-06-08T04:11:02.051Z,66
2019-06-08T04:12:03.589Z,66
2019-06-08T04:13:03.003Z,66
2019-06-08T04:14:02.772Z,66
2019-06-08T04:15:03.358Z,66
2019-06-08T04:16:03.123Z,66
2019-06-08T04:17:02.617Z,66
2019-06-08T04:18:03.287Z,66
2019-06-08T04:19:02.594Z,66
2019-06-08T04:20:12.710Z,66
2019-06-08T04:21:03.123Z,66
2019-06-08T04:22:02.843Z,66
2019-06-08T04:23:02.593Z,66
2019-06-08T04:24:03.167Z,65
2019-06-08T04:25:02.815Z,65
2019-06-08T04:26:03.551Z,65
2019-06-08T04:27:03.058Z,65
2019-06-08T04:28:02.709Z,65
2019-06-08T04:29:03.424Z,66
2019-06-08T04:30:03.001Z,65
2019-06-08T04:31:03.243Z,65
2019-06-08T04:32:03.067Z,65
2019-06-08T04:33:03.235Z,65
2019-06-08T04:34:02.944Z,65
2019-06-08T04:35:02.809Z,65
2019-06-08T04:36:03.458Z,65
2019-06-08T04:37:03.163Z,65
2019-06-08T04:38:02.762Z,65
2019-06-08T04:39:03.588Z,65
2019-06-08T04:40:03.166Z,65
2019-06-08T04:41:02.755Z,65
2019-06-08T04:42:03.164Z,65
2019-06-08T04:43:03.080Z,65
2019-06-08T04:44:02.680Z,65
2019-06-08T04:45:03.411Z,65
2019-06-08T04:46:02.910Z,65
2019-06-08T04:47:02.748Z,65
2019-06-08T04:48:02.774Z,65
2019-06-08T04:49:02.754Z,65
2019-06-08T04:50:24.514Z,65
2019-06-08T04:51:03.269Z,65
2019-06-08T04:52:02.689Z,65
2019-06-08T04:53:03.593Z,65
2019-06-08T04:54:03.218Z,65
2019-06-08T04:55:02.955Z,65
2019-06-08T04:56:03.586Z,65
2019-06-08T04:57:02.896Z,65
2019-06-08T04:58:02.639Z,65
2019-06-08T04:59:03.413Z,65
2019-06-08T05:00:13.834Z,65
2019-06-08T05:01:02.525Z,65
2019-06-08T05:02:03.114Z,65
2019-06-08T05:03:03.147Z,65
2019-06-08T05:04:03.101Z,64
2019-06-08T05:05:02.954Z,64
2019-06-08T05:06:03.549Z,64
2019-06-08T05:07:03.427Z,64
2019-06-08T05:08:02.704Z,64
2019-06-08T05:09:03.496Z,64
2019-06-08T05:10:03.216Z,64
2019-06-08T05:11:02.573Z,64
2019-06-08T05:12:03.313Z,64
2019-06-08T05:13:03.112Z,64
2019-06-08T05:14:03.484Z,64
2019-06-08T05:15:03.320Z,64
2019-06-08T05:16:03.023Z,64
2019-06-08T05:17:01.506Z,64
2019-06-08T05:18:03.561Z,64
2019-06-08T05:19:02.939Z,64
2019-06-08T05:20:03.405Z,64
2019-06-08T05:21:03.193Z,64
2019-06-08T05:22:02.873Z,64
2019-06-08T05:23:03.432Z,64
2019-06-08T05:24:03.349Z,64
2019-06-08T05:25:02.879Z,64
2019-06-08T05:26:03.395Z,64
2019-06-08T05:27:02.889Z,63
2019-06-08T05:28:02.583Z,63
2019-06-08T05:29:02.507Z,63
2019-06-08T05:30:09.312Z,63
2019-06-08T05:31:03.434Z,63
2019-06-08T05:32:03.446Z,63
2019-06-08T05:33:02.905Z,63
2019-06-08T05:34:03.430Z,63
2019-06-08T05:35:03.093Z,63
2019-06-08T05:36:03.201Z,63
2019-06-08T05:37:03.705Z,63
2019-06-08T05:38:03.227Z,63
2019-06-08T05:39:03.609Z,63
2019-06-08T05:40:03.591Z,63
2019-06-08T05:41:03.087Z,63
2019-06-08T05:42:02.699Z,63
2019-06-08T05:43:03.573Z,62
2019-06-08T05:44:02.842Z,62
2019-06-08T05:45:02.604Z,62
2019-06-08T05:46:02.955Z,62
2019-06-08T05:47:02.618Z,62
2019-06-08T05:48:03.627Z,62
2019-06-08T05:49:03.164Z,62
2019-06-08T05:50:03.006Z,62
2019-06-08T05:51:04.797Z,62
2019-06-08T05:52:03.025Z,62
2019-06-08T05:53:02.567Z,62
2019-06-08T05:54:03.385Z,62
2019-06-08T05:55:03.089Z,62
2019-06-08T05:56:02.566Z,62
2019-06-08T05:57:03.151Z,62
2019-06-08T05:58:02.789Z,61
2019-06-08T05:59:02.539Z,61
2019-06-08T06:00:09.549Z,61
2019-06-08T06:01:02.688Z,61
2019-06-08T06:02:02.482Z,61
2019-06-08T06:03:03.197Z,61
2019-06-08T06:04:02.799Z,61
2019-06-08T06:05:03.334Z,61
2019-06-08T06:06:02.784Z,61
2019-06-08T06:07:02.619Z,61
2019-06-08T06:08:03.233Z,61
2019-06-08T06:09:02.910Z,61
2019-06-08T06:10:03.329Z,61
2019-06-08T06:11:03.495Z,61
2019-06-08T06:12:02.871Z,61
2019-06-08T06:13:02.713Z,61
2019-06-08T06:14:02.657Z,61
2019-06-08T06:15:03.330Z,62
2019-06-08T06:16:02.896Z,62
2019-06-08T06:17:03.535Z,61
2019-06-08T06:18:02.901Z,61
2019-06-08T06:19:03.082Z,61
2019-06-08T06:20:03.258Z,61
2019-06-08T06:21:12.777Z,61
2019-06-08T06:22:03.632Z,61
2019-06-08T06:23:02.917Z,61
2019-06-08T06:24:03.586Z,62
2019-06-08T06:25:02.785Z,62
2019-06-08T06:26:02.653Z,62
2019-06-08T06:27:03.206Z,61
2019-06-08T06:28:06.798Z,62
2019-06-08T06:29:03.007Z,62
2019-06-08T06:30:03.418Z,62
2019-06-08T06:31:03.103Z,62
2019-06-08T06:32:03.283Z,62
2019-06-08T06:33:02.974Z,62
2019-06-08T06:34:03.033Z,62
2019-06-08T06:35:03.666Z,62
2019-06-08T06:36:02.958Z,62
2019-06-08T06:37:02.552Z,62
2019-06-08T06:38:03.707Z,62
2019-06-08T06:39:03.129Z,62
2019-06-08T06:40:02.730Z,62
2019-06-08T06:41:03.360Z,62
2019-06-08T06:42:02.664Z,62
2019-06-08T06:43:03.294Z,62
2019-06-08T06:44:02.955Z,61
2019-06-08T06:45:02.707Z,61
2019-06-08T06:46:03.277Z,61
2019-06-08T06:47:02.952Z,61
2019-06-08T06:48:03.646Z,61
2019-06-08T06:49:03.148Z,61
2019-06-08T06:50:03.481Z,61
2019-06-08T06:51:03.556Z,61
2019-06-08T06:52:03.112Z,61
2019-06-08T06:53:02.738Z,61
2019-06-08T06:54:03.912Z,61
2019-06-08T06:55:03.042Z,61
2019-06-08T06:56:02.752Z,61
2019-06-08T06:57:03.406Z,61
2019-06-08T06:58:03.343Z,61
2019-06-08T06:59:02.835Z,61
2019-06-08T07:00:03.875Z,61
2019-06-08T07:01:02.741Z,62
2019-06-08T07:02:02.629Z,61
2019-06-08T07:03:03.473Z,61
2019-06-08T07:04:03.117Z,61
2019-06-08T07:05:03.082Z,61
2019-06-08T07:06:03.206Z,61
2019-06-08T07:07:02.990Z,60
2019-06-08T07:08:03.028Z,61
2019-06-08T07:09:03.365Z,61
2019-06-08T07:10:03.135Z,61
2019-06-08T07:11:03.471Z,60
2019-06-08T07:12:03.316Z,60
2019-06-08T07:13:02.879Z,60
2019-06-08T07:14:03.059Z,60
2019-06-08T07:15:02.829Z,60
2019-06-08T07:16:19.632Z,60
2019-06-08T07:17:03.476Z,60
2019-06-08T07:18:03.007Z,60
2019-06-08T07:19:03.143Z,60
2019-06-08T07:20:03.151Z,60
2019-06-08T07:21:03.496Z,59
2019-06-08T07:22:02.631Z,59
2019-06-08T07:23:02.690Z,59
2019-06-08T07:24:02.686Z,59
2019-06-08T07:25:03.279Z,59
2019-06-08T07:26:02.655Z,59
2019-06-08T07:27:03.571Z,59
2019-06-08T07:28:02.621Z,59
2019-06-08T07:29:02.944Z,59
2019-06-08T07:30:03.162Z,59
2019-06-08T07:31:03.226Z,59
2019-06-08T07:32:03.211Z,59
2019-06-08T07:33:02.857Z,59
2019-06-08T07:34:03.776Z,59
2019-06-08T07:35:02.798Z,59
2019-06-08T07:36:03.351Z,59
2019-06-08T07:37:03.425Z,59
2019-06-08T07:38:03.142Z,59
2019-06-08T07:39:03.280Z,59
2019-06-08T07:40:03.120Z,59
2019-06-08T07:41:02.660Z,58
2019-06-08T07:42:03.452Z,58
2019-06-08T07:43:03.502Z,58
2019-06-08T07:44:02.791Z,58
2019-06-08T07:45:03.087Z,58
2019-06-08T07:46:02.749Z,58
2019-06-08T07:47:03.299Z,58
2019-06-08T07:48:03.106Z,58
2019-06-08T07:49:02.745Z,58
2019-06-08T07:50:05.164Z,58
2019-06-08T07:51:03.163Z,57
2019-06-08T07:52:11.276Z,57
2019-06-08T07:53:03.227Z,57
2019-06-08T07:54:02.816Z,57
2019-06-08T07:55:02.828Z,57
2019-06-08T07:56:03.156Z,57
2019-06-08T07:57:02.803Z,57
2019-06-08T07:58:02.563Z,57
2019-06-08T07:59:03.587Z,57
2019-06-08T08:00:10.042Z,57
2019-06-08T08:01:08.573Z,57
2019-06-08T08:02:03.245Z,57
2019-06-08T08:03:02.666Z,57
2019-06-08T08:04:03.466Z,57
2019-06-08T08:05:03.246Z,57
2019-06-08T08:06:02.780Z,57
2019-06-08T08:07:03.599Z,57
2019-06-08T08:08:02.975Z,57
2019-06-08T08:09:02.584Z,57
2019-06-08T08:10:03.473Z,57
2019-06-08T08:11:02.995Z,57
2019-06-08T08:12:02.662Z,56
2019-06-08T08:13:03.718Z,56
2019-06-08T08:14:03.015Z,56
2019-06-08T08:15:03.743Z,56
2019-06-08T08:16:02.951Z,56
2019-06-08T08:17:03.096Z,56
2019-06-08T08:18:03.052Z,56
2019-06-08T08:19:03.287Z,56
2019-06-08T08:20:02.975Z,56
2019-06-08T08:21:28.818Z,56
2019-06-08T08:22:29.681Z,56
2019-06-08T08:23:09.463Z,56
2019-06-08T08:24:03.366Z,56
2019-06-08T08:25:05.313Z,56
2019-06-08T08:26:02.891Z,56
2019-06-08T08:27:04.118Z,56
2019-06-08T08:28:02.665Z,56
2019-06-08T08:29:03.856Z,55
2019-06-08T08:30:03.000Z,56
2019-06-08T08:31:02.916Z,56
2019-06-08T08:32:02.646Z,55
2019-06-08T08:33:03.757Z,55
2019-06-08T08:34:09.205Z,55
2019-06-08T08:35:03.466Z,55
2019-06-08T08:36:03.520Z,55
2019-06-08T08:37:09.941Z,55
2019-06-08T08:38:07.841Z,55
2019-06-08T08:39:03.078Z,55
2019-06-08T08:40:02.667Z,55
2019-06-08T08:41:11.099Z,55
2019-06-08T08:42:07.958Z,55
2019-06-08T08:43:03.593Z,55
2019-06-08T08:44:05.105Z,55
2019-06-08T08:45:09.266Z,54
2019-06-08T08:46:03.069Z,54
2019-06-08T08:47:03.580Z,54
2019-06-08T08:48:31.758Z,54
2019-06-08T08:49:13.333Z,54
2019-06-08T08:50:03.475Z,54
2019-06-08T08:51:04.050Z,54
2019-06-08T08:52:03.243Z,54
2019-06-08T08:53:02.999Z,54
2019-06-08T08:54:08.801Z,54
2019-06-08T08:55:02.937Z,54
2019-06-08T08:56:03.363Z,54
2019-06-08T08:57:08.709Z,54
2019-06-08T08:58:02.707Z,54
2019-06-08T08:59:03.242Z,54
2019-06-08T09:00:05.489Z,54
2019-06-08T09:01:04.088Z,54
2019-06-08T09:02:03.400Z,54
2019-06-08T09:03:33.907Z,54
2019-06-08T09:04:08.750Z,54
2019-06-08T09:05:04.250Z,54
2019-06-08T09:06:04.809Z,54
2019-06-08T09:07:10.929Z,54
2019-06-08T09:08:04.387Z,54
2019-06-08T09:09:04.004Z,53
2019-06-08T09:10:04.594Z,54
2019-06-08T09:11:04.378Z,54
2019-06-08T09:12:04.962Z,54
2019-06-08T09:13:05.006Z,54
2019-06-08T09:14:14.580Z,54
2019-06-08T09:15:04.357Z,54
2019-06-08T09:16:04.753Z,54
2019-06-08T09:17:04.405Z,54
2019-06-08T09:18:04.427Z,54
2019-06-08T09:19:04.959Z,53
2019-06-08T09:20:04.094Z,53
2019-06-08T09:21:04.789Z,53
2019-06-08T09:22:04.794Z,53
2019-06-08T09:23:21.997Z,54
2019-06-08T09:24:04.461Z,53
2019-06-08T09:25:04.985Z,53
2019-06-08T09:26:13.511Z,53
2019-06-08T09:27:04.793Z,53
2019-06-08T09:28:05.257Z,54
2019-06-08T09:29:11.634Z,54
2019-06-08T09:30:05.272Z,54
2019-06-08T09:31:04.398Z,54
2019-06-08T09:32:04.367Z,54
2019-06-08T09:33:04.506Z,54
2019-06-08T09:34:19.024Z,54
2019-06-08T09:35:05.106Z,54
2019-06-08T09:36:08.458Z,54
2019-06-08T09:37:08.161Z,54
2019-06-08T09:38:10.516Z,54
2019-06-08T09:39:13.393Z,54
2019-06-08T09:40:04.004Z,54
2019-06-08T09:41:09.050Z,54
2019-06-08T09:42:05.462Z,54
2019-06-08T09:43:13.559Z,54
2019-06-08T09:44:11.847Z,53
2019-06-08T09:45:09.351Z,53
2019-06-08T09:46:09.565Z,53
2019-06-08T09:47:12.995Z,53
2019-06-08T09:48:09.566Z,53
2019-06-08T09:49:12.234Z,53
2019-06-08T09:50:09.464Z,53
2019-06-08T09:51:09.642Z,53
2019-06-08T09:52:09.081Z,53
2019-06-08T09:53:38.666Z,53
2019-06-08T09:54:13.214Z,53
2019-06-08T09:55:09.738Z,53
2019-06-08T09:56:10.312Z,53
2019-06-08T09:57:09.576Z,53
2019-06-08T09:58:12.039Z,53
2019-06-08T09:59:14.604Z,53
2019-06-08T10:00:28.394Z,53
2019-06-08T10:01:12.534Z,53
2019-06-08T10:02:13.425Z,53
2019-06-08T10:03:09.839Z,53
2019-06-08T10:04:09.703Z,53
2019-06-08T10:05:06.582Z,53
2019-06-08T10:06:12.897Z,53
2019-06-08T10:07:09.034Z,53
2019-06-08T10:08:09.434Z,52
2019-06-08T10:09:04.977Z,52
2019-06-08T10:10:10.035Z,52
2019-06-08T10:11:09.773Z,52
2019-06-08T10:12:10.173Z,52
2019-06-08T10:13:10.287Z,52
2019-06-08T10:14:13.136Z,52
2019-06-08T10:15:04.916Z,52
2019-06-08T10:16:10.838Z,52
2019-06-08T10:17:09.238Z,51
2019-06-08T10:18:05.237Z,51
2019-06-08T10:19:10.549Z,51
2019-06-08T10:20:10.264Z,51
2019-06-08T10:21:09.802Z,51
2019-06-08T10:22:03.246Z,51
2019-06-08T10:23:34.129Z,51
2019-06-08T10:24:09.960Z,51
2019-06-08T10:25:11.634Z,51
2019-06-08T10:26:06.911Z,51
2019-06-08T10:27:08.158Z,51
2019-06-08T10:28:20.947Z,51
2019-06-08T10:29:10.897Z,51
2019-06-08T10:30:10.557Z,51
2019-06-08T10:31:07.044Z,50
2019-06-08T10:32:03.955Z,50
2019-06-08T10:33:10.255Z,50
2019-06-08T10:34:11.625Z,50
2019-06-08T10:35:10.753Z,50
2019-06-08T10:36:13.113Z,49
2019-06-08T10:37:13.923Z,49
2019-06-08T10:38:12.304Z,49
2019-06-08T10:39:12.321Z,49
2019-06-08T10:40:07.967Z,49
2019-06-08T10:41:22.012Z,50
2019-06-08T10:42:11.456Z,50
2019-06-08T10:43:11.409Z,50
2019-06-08T10:44:03.680Z,50
2019-06-08T10:45:15.222Z,50
2019-06-08T10:46:21.052Z,49
2019-06-08T10:47:11.966Z,50
2019-06-08T10:48:06.582Z,49
2019-06-08T10:49:13.882Z,49
2019-06-08T10:50:16.981Z,48
2019-06-08T10:51:12.954Z,48
2019-06-08T10:52:12.259Z,48
2019-06-08T10:53:12.522Z,47
2019-06-08T10:54:04.532Z,47
2019-06-08T10:55:12.143Z,47
2019-06-08T10:56:12.519Z,47
2019-06-08T10:57:07.916Z,47
2019-06-08T10:58:02.760Z,47
2019-06-08T10:59:12.521Z,47
2019-06-08T11:00:20.706Z,48
2019-06-08T11:01:09.810Z,48
2019-06-08T11:02:11.426Z,48
2019-06-08T11:03:11.808Z,48
2019-06-08T11:04:07.274Z,47
2019-06-08T11:05:14.430Z,47
2019-06-08T11:06:13.021Z,47
2019-06-08T11:07:16.606Z,47
2019-06-08T11:08:14.633Z,47
2019-06-08T11:09:15.647Z,47
2019-06-08T11:10:12.794Z,47
2019-06-08T11:11:12.075Z,47
2019-06-08T11:12:15.171Z,47
2019-06-08T11:13:18.310Z,47
2019-06-08T11:14:12.909Z,47
2019-06-08T11:15:09.560Z,48
2019-06-08T11:16:13.573Z,48
2019-06-08T11:17:11.165Z,48
2019-06-08T11:18:13.620Z,48
2019-06-08T11:19:13.575Z,48
2019-06-08T11:20:13.826Z,48
2019-06-08T11:21:12.274Z,48
2019-06-08T11:22:14.863Z,48
2019-06-08T11:23:07.911Z,48
2019-06-08T11:24:25.514Z,47
2019-06-08T11:25:17.213Z,47
2019-06-08T11:26:24.637Z,47
2019-06-08T11:27:04.490Z,46
2019-06-08T11:28:12.927Z,46
2019-06-08T11:29:13.608Z,46
2019-06-08T11:30:30.480Z,45
2019-06-08T11:31:04.171Z,45
2019-06-08T11:32:12.290Z,45
2019-06-08T11:33:04.529Z,45
2019-06-08T11:34:05.773Z,44
2019-06-08T11:35:06.307Z,44
2019-06-08T11:36:15.057Z,44
2019-06-08T11:37:13.270Z,44
2019-06-08T11:38:04.321Z,44
2019-06-08T11:39:04.492Z,43
2019-06-08T11:40:12.301Z,42
2019-06-08T11:41:13.668Z,42
2019-06-08T11:42:04.598Z,42
2019-06-08T11:43:04.572Z,42
2019-06-08T11:44:12.330Z,42
2019-06-08T11:45:04.752Z,42
2019-06-08T11:46:04.832Z,42
2019-06-08T11:47:03.327Z,42
2019-06-08T11:48:06.560Z,42
2019-06-08T11:49:15.129Z,42
2019-06-08T11:50:11.571Z,42
2019-06-08T11:51:06.416Z,42
2019-06-08T11:52:02.783Z,42
2019-06-08T11:53:13.730Z,42
2019-06-08T11:54:03.180Z,42
2019-06-08T11:55:11.566Z,42
2019-06-08T11:56:04.849Z,41
2019-06-08T11:57:03.250Z,41
2019-06-08T11:58:03.109Z,40
2019-06-08T11:59:03.226Z,40
2019-06-08T12:00:30.875Z,40
2019-06-08T12:01:13.651Z,40
2019-06-08T12:02:03.708Z,40
2019-06-08T12:03:03.997Z,40
2019-06-08T12:04:03.762Z,40
2019-06-08T12:05:03.937Z,40
2019-06-08T12:06:04.311Z,40
2019-06-08T12:07:02.574Z,40
2019-06-08T12:08:04.499Z,40
2019-06-08T12:09:02.918Z,40
2019-06-08T12:10:04.779Z,40
2019-06-08T12:11:16.404Z,39
2019-06-08T12:12:02.719Z,40
2019-06-08T12:13:03.243Z,40
2019-06-08T12:14:03.170Z,39
2019-06-08T12:15:04.962Z,39
2019-06-08T12:16:03.331Z,39
2019-06-08T12:17:03.636Z,39
2019-06-08T12:18:03.699Z,39
2019-06-08T12:19:15.492Z,39
2019-06-08T12:20:03.530Z,39
2019-06-08T12:21:03.973Z,40
2019-06-08T12:22:04.063Z,40
2019-06-08T12:23:04.094Z,40
2019-06-08T12:24:04.382Z,40
2019-06-08T12:25:04.060Z,40
2019-06-08T12:26:02.549Z,40
2019-06-08T12:27:36.196Z,40
2019-06-08T12:28:02.689Z,40
2019-06-08T12:29:02.776Z,40
2019-06-08T12:30:27.301Z,40
2019-06-08T12:31:04.420Z,40
2019-06-08T12:32:02.579Z,41
2019-06-08T12:33:03.126Z,41
2019-06-08T12:34:02.666Z,41
2019-06-08T12:35:03.360Z,41
2019-06-08T12:36:02.864Z,41
2019-06-08T12:37:03.046Z,40
2019-06-08T12:38:03.355Z,40
2019-06-08T12:39:02.843Z,40
2019-06-08T12:40:02.427Z,40
2019-06-08T12:41:03.040Z,39
2019-06-08T12:42:02.781Z,38
2019-06-08T12:43:02.581Z,38
2019-06-08T12:44:03.776Z,38
2019-06-08T12:45:02.874Z,38
2019-06-08T12:46:03.349Z,38
2019-06-08T12:47:03.278Z,38
2019-06-08T12:48:02.823Z,38
2019-06-08T12:49:02.844Z,38
2019-06-08T12:50:03.370Z,38
2019-06-08T12:51:02.754Z,38
2019-06-08T12:52:03.414Z,38
2019-06-08T12:53:03.170Z,38
2019-06-08T12:54:02.835Z,38
2019-06-08T12:55:24.835Z,38
2019-06-08T12:56:02.857Z,37
2019-06-08T12:57:03.615Z,37
2019-06-08T12:58:03.276Z,36
2019-06-08T12:59:02.828Z,36
2019-06-08T13:00:03.623Z,37
2019-06-08T13:01:02.823Z,37
2019-06-08T13:02:02.750Z,38
2019-06-08T13:03:03.406Z,38
2019-06-08T13:04:02.839Z,38
2019-06-08T13:05:03.794Z,38
2019-06-08T13:06:03.077Z,38
2019-06-08T13:07:03.711Z,37
2019-06-08T13:08:03.527Z,38
2019-06-08T13:09:03.310Z,38
2019-06-08T13:10:02.926Z,38
2019-06-08T13:11:03.247Z,38
2019-06-08T13:12:02.696Z,38
2019-06-08T13:13:03.463Z,38
2019-06-08T13:14:03.073Z,38
2019-06-08T13:15:02.897Z,38
2019-06-08T13:16:02.775Z,38
2019-06-08T13:17:03.165Z,38
2019-06-08T13:18:03.280Z,38
2019-06-08T13:19:03.144Z,38
2019-06-08T13:20:03.268Z,38
2019-06-08T13:21:35.459Z,38
2019-06-08T13:22:03.470Z,38
2019-06-08T13:23:03.334Z,38
2019-06-08T13:24:03.596Z,38
2019-06-08T13:25:43.758Z,38
2019-06-08T13:27:02.763Z,37
2019-06-08T13:28:03.105Z,37
2019-06-08T13:29:02.849Z,38
2019-06-08T13:30:03.564Z,38
2019-06-08T13:31:03.187Z,38
2019-06-08T13:32:02.944Z,38
2019-06-08T13:33:03.438Z,38
2019-06-08T13:34:02.959Z,38
2019-06-08T13:35:02.905Z,38
2019-06-08T13:36:03.383Z,38
2019-06-08T13:37:02.833Z,38
2019-06-08T13:38:02.435Z,38
2019-06-08T13:39:03.287Z,38
2019-06-08T13:40:03.054Z,38
2019-06-08T13:41:03.536Z,38
2019-06-08T13:42:03.377Z,37
2019-06-08T13:43:02.780Z,37
2019-06-08T13:44:03.428Z,37
2019-06-08T13:45:03.156Z,36
2019-06-08T13:46:03.763Z,36
2019-06-08T13:47:03.386Z,37
2019-06-08T13:48:02.848Z,37
2019-06-08T13:49:02.561Z,37
2019-06-08T13:50:03.262Z,37
2019-06-08T13:51:02.706Z,37
2019-06-08T13:52:02.609Z,37
2019-06-08T13:53:03.226Z,37
2019-06-08T13:54:02.774Z,37
2019-06-08T13:55:03.116Z,37
2019-06-08T13:56:02.991Z,37
2019-06-08T13:57:03.624Z,37
2019-06-08T13:58:03.481Z,37
2019-06-08T13:59:03.040Z,37
2019-06-08T14:00:03.614Z,37
2019-06-08T14:01:03.175Z,37
2019-06-08T14:02:02.666Z,37
2019-06-08T14:03:03.271Z,37
2019-06-08T14:04:03.110Z,37
2019-06-08T14:05:02.822Z,37
2019-06-08T14:06:03.412Z,36
2019-06-08T14:07:02.757Z,36
2019-06-08T14:08:03.507Z,36
2019-06-08T14:09:03.061Z,36
2019-06-08T14:10:02.882Z,36
2019-06-08T14:11:03.522Z,36
2019-06-08T14:12:02.955Z,36
2019-06-08T14:13:03.667Z,36
2019-06-08T14:14:03.312Z,36
2019-06-08T14:15:03.359Z,36
2019-06-08T14:16:03.523Z,36
2019-06-08T14:17:03.401Z,36